Date,TemperatureHighF,TemperatureAvgF,TemperatureLowF,DewpointHighF,DewpointAvgF,DewpointLowF,HumidityHigh,HumidityAvg,HumidityLow,PressureMaxIn,PressureMinIn,WindSpeedMaxMPH,WindSpeedAvgMPH,GustSpeedMaxMPH,PrecipitationSumIn
2013-7-1,86.4,74.4,68.5,76.3,57.7,-99.9,99,90,69,29.93,29.81,3,0,0,0.03
2013-7-2,76.8,73.4,70.3,73.3,63.3,-99.9,100,93,83,30.13,29.93,4,0,0,0.22
2013-7-3,83.0,73.8,70.7,78.8,49.0,-99.9,100,97,80,30.21,30.11,3,0,0,0.68
2013-7-4,91.2,77.0,71.5,82.0,63.4,-99.9,100,91,63,30.23,30.13,3,0,0,0.18
2013-7-5,86.8,77.2,71.6,77.9,65.8,-99.9,100,89,67,30.21,30.11,4,0,0,0.00
2013-7-6,88.2,76.9,68.1,76.7,55.2,-99.9,100,87,61,30.18,30.06,4,0,0,0.00
2013-7-7,84.6,74.3,69.1,77.3,55.0,-99.9,100,92,74,30.11,30.00,5,0,0,0.44
2013-7-8,88.0,74.1,66.9,75.8,57.3,-99.9,100,92,58,30.12,30.04,2,0,0,0.05
2013-7-9,85.7,75.0,67.1,79.1,62.3,-99.9,100,93,79,30.10,30.00,4,0,0,0.00
2013-7-10,85.0,75.2,71.6,80.2,63.4,-99.9,100,97,79,30.01,29.87,6,0,0,1.95
2013-7-11,86.6,74.0,69.1,77.2,52.5,-99.9,100,95,65,29.91,29.84,3,0,0,1.41
2013-7-12,71.4,67.9,65.7,69.1,49.7,-99.9,100,97,84,30.04,29.87,4,0,0,0.19
2013-7-13,83.4,72.8,66.5,75.6,43.0,-99.9,100,93,72,30.22,30.03,2,0,0,0.08
2013-7-14,92.8,77.1,68.1,79.2,61.0,-99.9,100,88,56,30.32,30.22,2,0,0,0.00
2013-7-15,98.9,79.0,66.5,80.7,56.2,-99.9,100,85,47,30.30,30.19,0,0,0,0.00
2013-7-16,96.3,79.4,67.8,83.4,58.6,-99.9,100,87,58,30.24,30.15,4,0,0,0.00
2013-7-17,88.5,77.9,71.0,82.8,65.5,-99.9,100,94,73,30.21,30.09,3,0,0,0.29
2013-7-18,97.5,80.8,69.7,83.9,65.9,-99.9,100,88,60,30.13,29.99,3,0,0,0.00
2013-7-19,90.6,78.0,71.1,82.0,58.7,-99.9,100,93,71,30.02,29.88,5,0,0,0.50
2013-7-20,93.3,77.5,70.3,80.9,51.5,-99.9,100,92,60,29.91,29.83,6,0,14,0.47
2013-7-21,92.2,75.3,67.9,79.6,56.2,-99.9,100,91,56,29.95,29.86,8,0,0,0.30
2013-7-22,90.0,76.6,69.9,79.2,63.2,-99.9,100,92,67,29.92,29.74,4,0,0,0.03
2013-7-23,93.7,77.9,70.6,77.4,49.9,-99.9,100,85,50,29.75,29.64,3,0,0,0.00
2013-7-24,87.2,74.8,66.7,76.3,56.9,-99.9,99,88,61,29.81,29.66,5,0,0,0.63
2013-7-25,85.0,74.5,64.9,70.8,66.1,60.9,97,76,55,30.04,29.93,6,0,0,0.00
2013-7-26,85.2,70.1,58.3,72.6,55.0,-99.9,100,85,55,30.09,29.99,3,0,0,0.00
2013-7-27,73.7,69.0,63.3,72.2,57.7,-99.9,100,96,88,30.03,29.90,3,0,0,0.06
2013-7-28,88.0,74.9,68.5,76.7,53.6,-99.9,98,87,64,29.97,29.86,4,0,0,0.02
2013-7-29,84.7,70.8,62.1,68.3,46.8,-99.9,98,78,46,30.16,29.97,3,0,0,0.00
2013-7-30,85.3,69.0,55.6,71.2,52.2,-99.9,100,83,49,30.22,30.12,3,0,0,0.00
2013-7-31,65.1,63.0,61.5,64.2,35.3,-99.9,100,98,96,30.14,30.11,0,0,0,0.00